METAR Data
IDs: Format: Raw Decoded Include TAF

Data at: 1633 UTC 19 Sep 2018

KWLD 191554Z AUTO 18011G20KT 10SM CLR 30/21 A2996 RMK AO2 SLP132 T03000206
KWLD 191454Z AUTO 19009KT 10SM CLR 28/21 A2995 RMK AO2 SLP129 T02830211 51009
KWLD 191354Z AUTO 18008KT 10SM CLR 26/21 A2995 RMK AO2 SLP128 T02560211
KWLD 191254Z AUTO 16004KT 10SM CLR 23/21 A2994 RMK AO2 SLP126 T02280206
KWLD 191154Z AUTO 17008KT 10SM CLR 22/21 A2993 RMK AO2 SLP121 T02170206 10244 20217 50000
KWLD 191054Z AUTO 18006KT 10SM CLR 22/21 A2993 RMK AO2 SLP121 T02220206
KWLD 190954Z AUTO 17006KT 10SM CLR 22/21 A2993 RMK AO2 SLP120 T02220206
KWLD 190854Z AUTO 16006KT 10SM CLR 23/21 A2993 RMK AO2 SLP120 T02280206 55000
KWLD 190754Z AUTO 17007KT 10SM CLR 23/21 A2993 RMK AO2 SLP120 T02330211
KWLD 190654Z AUTO 17008KT 10SM CLR 24/21 A2993 RMK AO2 SLP119 T02390211
KWLD 190554Z AUTO 17008KT 10SM CLR 24/21 A2993 RMK AO2 SLP120 T02390211 10300 20239 403390217 50002
KWLD 190454Z AUTO 16006KT 10SM CLR 24/21 A2993 RMK AO2 SLP122 T02440211
KWLD 190354Z AUTO 16006KT 10SM CLR 25/22 A2993 RMK AO2 SLP120 T02500217
KWLD 190254Z AUTO 16008KT 10SM CLR 26/22 A2992 RMK AO2 SLP118 T02610217 52014
KWLD 190154Z AUTO 14006KT 10SM CLR 27/22 A2991 RMK AO2 SLP115 T02670217
KWLD 190054Z AUTO 15005KT 10SM CLR 28/21 A2989 RMK AO2 SLP109 T02780211
KWLD 182354Z AUTO 18007KT 10SM CLR 30/21 A2988 RMK AO2 SLP104 T03000206 10339 20300 55007
KWLD 182254Z AUTO 20011KT 10SM CLR 32/20 A2987 RMK AO2 SLP100 T03170200
KWLD 182154Z AUTO 18009G17KT 10SM FEW060 32/21 A2988 RMK AO2 SLP103 T03220206
KWLD 182054Z AUTO 20009KT 10SM SCT060 32/21 A2990 RMK AO2 SLP110 T03220206 56016
KWLD 181954Z AUTO 20008G18KT 10SM FEW060 33/20 A2991 RMK AO2 SLP114 T03280200
KWLD 181854Z AUTO 20012G23KT 10SM SCT055 34/21 A2993 RMK AO2 SLP120 T03390206
KWLD 181754Z AUTO 20013G20KT 10SM CLR 32/21 A2995 RMK AO2 SLP126 T03220211 10322 20217 58015
KWLD 181654Z AUTO 19012G18KT 10SM CLR 32/21 A2997 RMK AO2 SLP134 T03170211
KWLD 181554Z AUTO 20011KT 10SM CLR 31/22 A2998 RMK AO2 SLP139 T03060217
KWLD 181454Z AUTO 21007KT 10SM CLR 28/22 A2999 RMK AO2 SLP143 T02780217 50004
KWLD 181354Z AUTO 18004KT 10SM CLR 25/22 A3000 RMK AO2 SLP144 T02500222
KWLD 181254Z AUTO 17004KT 8SM CLR 22/21 A2999 RMK AO2 SLP144 T02220211
KWLD 181154Z AUTO 17005KT 9SM CLR 22/21 A2998 RMK AO2 SLP139 T02170211 10239 20217 53002
KWLD 181054Z AUTO 16005KT 9SM CLR 22/21 A2997 RMK AO2 SLP137 T02220211
KWLD 180954Z AUTO 16006KT 9SM CLR 23/22 A2997 RMK AO2 SLP135 T02280217
KWLD 180854Z AUTO 16005KT 9SM CLR 22/22 A2997 RMK AO2 SLP135 T02220217 58003
KWLD 180754Z AUTO 16005KT 10SM CLR 23/22 A2997 RMK AO2 SLP136 T02280217
KWLD 180654Z AUTO 16005KT 9SM CLR 23/22 A2998 RMK AO2 SLP139 T02280217
KWLD 180554Z AUTO 16004KT 10SM CLR 23/22 A2998 RMK AO2 SLP138 T02330217 10294 20233 403280206 50004
KWLD 180454Z AUTO 15004KT 10SM CLR 24/22 A2998 RMK AO2 SLP139 T02440222